Bengbu, China
Current Conditions -  °F | °C
As of 6:00 AM on Friday 19 Dec 2014 (Local Time) from ZSOF Reporting Station
Clear Clear  
Wind Chill: 35°   Ceiling: Unl
Heat Index: 41°   Visibility: 4mi
Dew Point: 27°   Wind: 9mph
Humidity: 57%   Direction: 160°SSE
Pressure: 30.27"   Gusts: NA
Location:  32.95°N, 117.33°E
Report Text: ZSOF 182200Z 16004MPS 7000 NSC 05/M03 Q1025 NOSIG
Loading
Personal Weather Stations






























Interactive Weather Map New forecast layout! Learn more

10-Day Weather Forecast

Advertisements
Track Severe Weather on mobile